Time;durP1;ratioP1;P1;durP2;ratioP2;P2;SDS_P1;SDS_P2;PMS_P1;PMS_P2;Temp;Humidity;BMP_temperature;BMP_pressure;BME280_temperature;BME280_humidity;BME280_pressure;Samples;Min_cycle;Max_cycle;Signal;HPM_P1;HPM_P2
2022/10/08 00:01:37;;;;;;;8.20;4.30;;;13.90;99.90;;;;;;5027735;28;20976;-80
2022/10/08 00:04:04;;;;;;;4.03;3.60;;;13.90;99.90;;;;;;5027585;28;20622;-80
2022/10/08 00:06:32;;;;;;;6.07;4.67;;;13.80;99.90;;;;;;5026644;28;20659;-80
2022/10/08 00:09:02;;;;;;;4.47;4.00;;;13.70;99.90;;;;;;5027626;28;20977;-81
2022/10/08 00:11:31;;;;;;;5.20;4.10;;;13.70;99.90;;;;;;5027494;28;20614;-80
2022/10/08 00:14:00;;;;;;;6.53;4.23;;;13.70;99.90;;;;;;5027938;28;20602;-80
2022/10/08 00:16:29;;;;;;;4.57;3.50;;;13.80;99.90;;;;;;5027804;28;20619;-80
2022/10/08 00:18:59;;;;;;;4.87;4.37;;;13.80;99.90;;;;;;5027015;28;20615;-80
2022/10/08 00:21:28;;;;;;;5.33;4.93;;;13.80;99.90;;;;;;5026691;28;20634;-80
2022/10/08 00:23:57;;;;;;;4.50;4.10;;;13.70;99.90;;;;;;5027148;28;20617;-80
2022/10/08 00:26:26;;;;;;;4.80;4.23;;;13.70;99.90;;;;;;5027837;28;21008;-80
2022/10/08 00:28:54;;;;;;;3.83;3.43;;;13.70;99.90;;;;;;5026762;28;20629;-79
2022/10/08 00:31:24;;;;;;;7.60;4.43;;;13.70;99.90;;;;;;5027859;28;20627;-80
2022/10/08 00:33:52;;;;;;;4.10;3.70;;;13.60;99.90;;;;;;5024673;28;20963;-80
2022/10/08 00:36:18;;;;;;;5.17;4.70;;;13.50;99.90;;;;;;5023028;28;21235;-80
2022/10/08 00:38:45;;;;;;;4.47;4.03;;;13.50;99.90;;;;;;5026626;28;20629;-80
2022/10/08 00:41:20;;;;;;;5.00;3.13;;;13.40;99.90;;;;;;5027878;28;21115;-80
2022/10/08 00:43:48;;;;;;;4.70;3.80;;;13.50;99.90;;;;;;5026864;28;20965;-80
2022/10/08 00:46:25;;;;;;;4.53;3.93;;;13.40;99.90;;;;;;5027483;28;20657;-80
2022/10/08 00:49:01;;;;;;;4.10;3.80;;;13.40;99.90;;;;;;5007700;28;20702;-80
2022/10/08 00:51:29;;;;;;;6.80;4.07;;;13.40;99.90;;;;;;5013620;28;20634;-80
2022/10/08 00:53:56;;;;;;;4.70;4.00;;;13.40;99.90;;;;;;5026161;28;20630;-80
2022/10/08 00:56:23;;;;;;;8.07;5.07;;;13.40;99.90;;;;;;5026985;28;20633;-80
2022/10/08 00:58:51;;;;;;;6.30;4.00;;;13.40;99.90;;;;;;5025745;28;20634;-80
2022/10/08 01:01:18;;;;;;;5.70;3.90;;;13.40;99.90;;;;;;5026684;28;20639;-80
2022/10/08 01:03:46;;;;;;;4.20;3.77;;;13.30;99.90;;;;;;5027230;28;20741;-80
2022/10/08 01:06:21;;;;;;;5.20;4.70;;;13.30;99.90;;;;;;5027230;28;20651;-81
2022/10/08 01:08:55;;;;;;;4.00;3.60;;;13.40;99.90;;;;;;5026981;28;20622;-81
2022/10/08 01:11:33;;;;;;;4.80;4.10;;;13.40;99.90;;;;;;5027031;28;20635;-80
2022/10/08 01:14:08;;;;;;;3.97;3.23;;;13.30;99.90;;;;;;5027464;28;20603;-80
2022/10/08 01:16:44;;;;;;;6.00;4.90;;;13.40;99.90;;;;;;5027823;28;21195;-80
2022/10/08 01:19:30;;;;;;;3.63;3.33;;;13.40;99.90;;;;;;5030888;28;20614;-81
2022/10/08 01:22:06;;;;;;;4.60;4.00;;;13.50;99.90;;;;;;5030441;28;20614;-81
2022/10/08 01:27:43;;;;;;;4.00;3.63;;;13.50;99.90;;;;;;4993868;28;20635;-80
2022/10/08 01:30:13;;;;;;;4.07;3.77;;;13.50;99.90;;;;;;5030777;28;20614;-80
2022/10/08 01:32:44;;;;;;;5.57;4.13;;;13.50;99.90;;;;;;5029948;28;21055;-81
2022/10/08 01:35:15;;;;;;;4.10;3.70;;;13.50;99.90;;;;;;5029565;28;20685;-80
2022/10/08 01:37:43;;;;;;;4.30;3.37;;;13.50;99.90;;;;;;5029601;28;20697;-80
2022/10/08 01:40:16;;;;;;;6.17;4.63;;;13.50;99.90;;;;;;5029949;28;20635;-80
2022/10/08 01:42:46;;;;;;;5.80;4.67;;;13.50;99.90;;;;;;5028456;28;20618;-81
2022/10/08 01:45:18;;;;;;;4.83;4.03;;;13.50;99.90;;;;;;5028579;28;20677;-81
2022/10/08 01:47:46;;;;;;;5.10;3.63;;;13.40;99.90;;;;;;5029589;28;20685;-81
2022/10/08 01:50:19;;;;;;;4.00;3.60;;;13.40;99.90;;;;;;5030002;28;20623;-80
2022/10/08 01:52:51;;;;;;;4.40;4.00;;;13.50;99.90;;;;;;5030292;28;20614;-81
2022/10/08 01:55:28;;;;;;;3.13;2.83;;;13.50;99.90;;;;;;5030106;28;20609;-81
2022/10/08 01:58:01;;;;;;;4.10;3.70;;;13.50;99.90;;;;;;5013039;28;20722;-80
2022/10/08 02:00:29;;;;;;;3.60;3.40;;;13.50;99.90;;;;;;5024266;28;20702;-80
2022/10/08 02:02:57;;;;;;;3.17;2.90;;;13.50;99.90;;;;;;5029688;28;21064;-81
2022/10/08 02:05:28;;;;;;;3.47;3.17;;;13.60;99.90;;;;;;5027978;28;21029;-80
2022/10/08 02:07:55;;;;;;;4.40;3.83;;;13.60;99.90;;;;;;5029206;28;21192;-81
2022/10/08 02:10:23;;;;;;;3.30;3.00;;;13.70;99.90;;;;;;5030050;28;20630;-81
2022/10/08 02:12:50;;;;;;;5.00;4.00;;;13.70;99.90;;;;;;5029293;28;21028;-80
2022/10/08 02:15:22;;;;;;;4.30;3.90;;;13.70;99.90;;;;;;5029076;28;20661;-81
2022/10/08 02:17:57;;;;;;;5.70;4.03;;;13.80;99.90;;;;;;5029194;28;21263;-80
2022/10/08 02:20:30;;;;;;;4.27;3.57;;;13.70;99.90;;;;;;5029391;28;20607;-81
2022/10/08 02:23:03;;;;;;;3.70;3.40;;;13.70;99.90;;;;;;5029855;28;20630;-80
2022/10/08 02:25:36;;;;;;;7.40;4.60;;;13.70;99.90;;;;;;5029433;28;20630;-80
2022/10/08 02:28:10;;;;;;;3.63;3.10;;;13.70;99.90;;;;;;5027795;28;20631;-80
2022/10/08 02:30:44;;;;;;;4.33;3.90;;;13.70;99.90;;;;;;5029261;28;20614;-81
2022/10/08 02:33:15;;;;;;;3.70;3.20;;;13.70;99.90;;;;;;5029774;28;21228;-81
2022/10/08 02:35:47;;;;;;;6.20;3.90;;;13.80;99.90;;;;;;5024771;28;20632;-81
2022/10/08 02:38:18;;;;;;;11.40;3.60;;;13.80;99.90;;;;;;5028805;28;21153;-81
2022/10/08 02:40:50;;;;;;;4.77;3.50;;;13.80;99.90;;;;;;5029223;28;21308;-80
2022/10/08 02:43:23;;;;;;;4.03;3.30;;;13.70;99.90;;;;;;5029833;28;20619;-80
2022/10/08 02:45:56;;;;;;;3.53;3.30;;;13.70;99.90;;;;;;5028996;28;20650;-81
2022/10/08 02:48:30;;;;;;;5.57;4.17;;;13.80;99.90;;;;;;5028510;28;20611;-80
2022/10/08 02:51:01;;;;;;;2.77;2.57;;;13.80;99.90;;;;;;5028646;28;21047;-81
2022/10/08 02:53:28;;;;;;;3.87;3.57;;;13.80;99.90;;;;;;5029390;28;21004;-81
2022/10/08 02:56:05;;;;;;;5.10;4.00;;;13.70;99.90;;;;;;5026962;28;20627;-81
2022/10/08 02:58:33;;;;;;;3.50;3.20;;;13.70;99.90;;;;;;5015498;28;20726;-80
2022/10/08 03:01:08;;;;;;;4.43;3.30;;;13.70;99.90;;;;;;5029222;28;20650;-81
2022/10/08 03:03:38;;;;;;;8.30;4.43;;;13.70;99.90;;;;;;5028489;28;20635;-80
2022/10/08 03:06:08;;;;;;;4.47;3.30;;;13.70;99.90;;;;;;5028273;28;20655;-80
2022/10/08 03:08:39;;;;;;;5.70;3.73;;;13.70;99.90;;;;;;5028593;28;20706;-80
2022/10/08 03:11:07;;;;;;;3.20;2.80;;;13.60;99.90;;;;;;5028981;28;20676;-80
2022/10/08 03:13:37;;;;;;;5.07;3.90;;;13.60;99.90;;;;;;5026987;28;20619;-80
2022/10/08 03:16:08;;;;;;;6.43;2.90;;;13.60;99.90;;;;;;5028625;28;20738;-80
2022/10/08 03:18:37;;;;;;;3.00;2.70;;;13.60;99.90;;;;;;5027368;28;21191;-81
2022/10/08 03:21:06;;;;;;;3.73;3.43;;;13.60;99.90;;;;;;5028190;28;20631;-80
2022/10/08 03:23:33;;;;;;;4.00;3.63;;;13.60;99.90;;;;;;5028593;28;20695;-80
2022/10/08 03:26:00;;;;;;;3.50;3.20;;;13.60;99.90;;;;;;5028489;28;20665;-80
2022/10/08 03:28:26;;;;;;;4.63;4.13;;;13.60;99.90;;;;;;5027806;28;20621;-80
2022/10/08 03:30:53;;;;;;;5.43;3.13;;;13.60;99.90;;;;;;5028171;28;20634;-80
2022/10/08 03:33:21;;;;;;;4.90;4.07;;;13.60;99.90;;;;;;5028242;28;20605;-80
2022/10/08 03:35:48;;;;;;;4.33;3.93;;;13.60;99.90;;;;;;5009638;28;20678;-80
2022/10/08 03:38:16;;;;;;;4.13;3.70;;;13.50;99.90;;;;;;5008001;28;20626;-80
2022/10/08 03:40:43;;;;;;;3.90;3.50;;;13.50;99.90;;;;;;5011675;28;21093;-80
2022/10/08 03:43:10;;;;;;;3.60;3.30;;;13.50;99.90;;;;;;5027655;28;20635;-80
2022/10/08 03:45:37;;;;;;;4.80;3.43;;;13.40;99.90;;;;;;5027865;28;20627;-80
2022/10/08 03:48:04;;;;;;;4.30;2.93;;;13.50;99.90;;;;;;5027412;28;20655;-80
2022/10/08 03:50:32;;;;;;;2.67;2.47;;;13.50;99.90;;;;;;5027860;28;21063;-81
2022/10/08 03:52:59;;;;;;;3.30;3.00;;;13.50;99.90;;;;;;5027762;28;20630;-80
2022/10/08 03:55:25;;;;;;;6.40;4.20;;;13.50;99.90;;;;;;5027914;28;20611;-80
2022/10/08 03:57:52;;;;;;;4.00;2.63;;;13.50;99.90;;;;;;5027676;28;20638;-80
2022/10/08 04:00:19;;;;;;;4.03;3.20;;;13.50;99.90;;;;;;5027370;28;20630;-80
2022/10/08 04:02:50;;;;;;;4.47;3.70;;;13.50;99.90;;;;;;5028049;28;20626;-80
2022/10/08 04:05:16;;;;;;;3.93;3.10;;;13.40;99.90;;;;;;5027492;28;20681;-80
2022/10/08 04:07:45;;;;;;;4.17;3.00;;;13.40;99.90;;;;;;5027239;28;20677;-80
2022/10/08 04:10:11;;;;;;;3.93;3.63;;;13.40;99.90;;;;;;5027926;28;20623;-80
2022/10/08 04:12:38;;;;;;;3.43;3.13;;;13.40;99.90;;;;;;5028104;28;20630;-80
2022/10/08 04:15:06;;;;;;;3.93;3.63;;;13.40;99.90;;;;;;5027455;28;20615;-81
2022/10/08 04:17:33;;;;;;;3.40;3.00;;;13.40;99.90;;;;;;5027164;28;20632;-80
2022/10/08 04:20:00;;;;;;;3.70;3.40;;;13.50;99.90;;;;;;5027996;28;20634;-80
2022/10/08 04:22:26;;;;;;;5.63;3.70;;;13.40;99.90;;;;;;5027869;28;20631;-80
2022/10/08 04:24:54;;;;;;;3.10;2.80;;;13.40;99.90;;;;;;5027805;28;20633;-80
2022/10/08 04:27:21;;;;;;;3.30;3.00;;;13.30;99.90;;;;;;5026542;28;20651;-81
2022/10/08 04:29:48;;;;;;;3.13;2.77;;;13.30;99.90;;;;;;5027521;28;20616;-80
2022/10/08 04:32:15;;;;;;;3.80;3.50;;;13.30;99.90;;;;;;5027546;28;20629;-80
2022/10/08 04:34:42;;;;;;;3.10;2.90;;;13.40;99.90;;;;;;5017946;28;20735;-80
2022/10/08 04:37:09;;;;;;;4.80;3.43;;;13.30;99.90;;;;;;5006726;28;20624;-80
2022/10/08 04:39:36;;;;;;;3.10;2.40;;;13.30;99.90;;;;;;5007849;28;20626;-80
2022/10/08 04:42:04;;;;;;;4.90;3.47;;;13.40;99.90;;;;;;5017593;28;20635;-81
2022/10/08 04:44:31;;;;;;;3.10;2.87;;;13.40;99.90;;;;;;5027150;28;20623;-81
2022/10/08 04:46:58;;;;;;;3.37;3.07;;;13.30;99.90;;;;;;5026757;28;20663;-81
2022/10/08 04:49:27;;;;;;;7.80;2.70;;;13.30;99.90;;;;;;5027842;28;20628;-80
2022/10/08 04:51:54;;;;;;;3.13;2.83;;;13.30;99.90;;;;;;5028717;28;20630;-81
2022/10/08 04:54:21;;;;;;;3.30;3.00;;;13.30;99.90;;;;;;5031148;28;20730;-81
2022/10/08 04:56:48;;;;;;;3.30;3.00;;;13.30;99.90;;;;;;5023666;28;20626;-81
2022/10/08 04:59:16;;;;;;;7.13;3.90;;;13.30;99.90;;;;;;5022010;28;21518;-80
2022/10/08 05:01:43;;;;;;;3.80;2.60;;;13.30;99.90;;;;;;5031061;28;20617;-81
2022/10/08 05:04:09;;;;;;;3.60;3.30;;;13.30;99.90;;;;;;5030883;28;20626;-81
2022/10/08 05:06:36;;;;;;;3.50;3.20;;;13.40;99.90;;;;;;5030669;28;20653;-81
2022/10/08 05:09:03;;;;;;;8.77;4.23;;;13.40;99.90;;;;;;5030215;28;20755;-81
2022/10/08 05:11:31;;;;;;;2.90;2.40;;;13.40;99.90;;;;;;5030984;28;20621;-81
2022/10/08 05:13:58;;;;;;;4.50;2.90;;;13.40;99.90;;;;;;5031244;28;20729;-80
2022/10/08 05:16:27;;;;;;;4.10;3.60;;;13.40;99.90;;;;;;5030845;28;20626;-80
2022/10/08 05:18:54;;;;;;;3.30;3.00;;;13.40;99.90;;;;;;5030164;28;20964;-81
2022/10/08 05:21:23;;;;;;;4.30;3.90;;;13.40;99.90;;;;;;5030664;28;21181;-80
2022/10/08 05:23:54;;;;;;;3.63;3.00;;;13.30;99.90;;;;;;5031000;28;20990;-80
2022/10/08 05:26:23;;;;;;;3.10;2.80;;;13.20;99.90;;;;;;5030788;28;20631;-81
2022/10/08 05:28:54;;;;;;;4.17;3.30;;;13.20;99.90;;;;;;5030215;28;20631;-80
2022/10/08 05:31:21;;;;;;;2.50;2.30;;;13.20;99.90;;;;;;5019431;28;20642;-81
2022/10/08 05:33:49;;;;;;;3.83;3.27;;;13.20;99.90;;;;;;5017871;28;20612;-80
2022/10/08 05:36:18;;;;;;;3.53;2.67;;;13.10;99.90;;;;;;5018458;28;20694;-80
2022/10/08 05:38:46;;;;;;;2.97;2.77;;;13.10;99.90;;;;;;5020352;28;20968;-82
2022/10/08 05:41:17;;;;;;;4.13;3.47;;;13.10;99.90;;;;;;5023118;28;21239;-83
2022/10/08 05:46:45;;;;;;;3.00;2.70;;;13.00;99.90;;;;;;5019311;28;20670;-81
2022/10/08 05:49:18;;;;;;;3.20;2.83;;;13.00;99.90;;;;;;5019895;28;20623;-80
2022/10/08 05:51:45;;;;;;;3.27;2.90;;;12.90;99.90;;;;;;5018266;28;20978;-81
2022/10/08 05:54:11;;;;;;;9.03;4.43;;;13.00;99.90;;;;;;5021219;28;20698;-80
2022/10/08 05:56:38;;;;;;;5.70;3.50;;;12.90;99.90;;;;;;5019267;28;20624;-81
2022/10/08 05:59:05;;;;;;;3.00;2.40;;;12.90;99.90;;;;;;5018564;28;20638;-81
2022/10/08 06:01:33;;;;;;;3.30;3.00;;;12.90;99.90;;;;;;5021040;28;20627;-80
2022/10/08 06:04:02;;;;;;;3.30;2.90;;;12.80;99.90;;;;;;5016234;28;21197;-80
2022/10/08 06:06:30;;;;;;;5.07;2.90;;;12.80;99.90;;;;;;5020167;28;20641;-80
2022/10/08 06:08:58;;;;;;;2.53;2.33;;;12.80;99.90;;;;;;5019692;28;20628;-80
2022/10/08 06:11:25;;;;;;;3.33;3.00;;;12.80;99.90;;;;;;5018819;28;20742;-80
2022/10/08 06:13:53;;;;;;;3.90;2.93;;;12.80;99.90;;;;;;5029333;28;20733;-80
2022/10/08 06:16:21;;;;;;;3.70;3.37;;;12.80;99.90;;;;;;5029489;28;21267;-80
2022/10/08 06:18:48;;;;;;;4.17;2.80;;;12.70;99.90;;;;;;5028631;28;20615;-80
2022/10/08 06:21:16;;;;;;;3.87;2.30;;;12.80;99.90;;;;;;5029686;28;21185;-80
2022/10/08 06:23:48;;;;;;;3.23;2.60;;;12.70;99.90;;;;;;5029748;28;20623;-80
2022/10/08 06:26:16;;;;;;;3.10;2.67;;;12.80;99.90;;;;;;5029112;28;20631;-80
2022/10/08 06:28:44;;;;;;;4.53;3.13;;;12.80;99.90;;;;;;5029296;28;21200;-80
2022/10/08 06:31:11;;;;;;;2.77;2.57;;;12.80;99.90;;;;;;5029397;28;20642;-80
2022/10/08 06:33:38;;;;;;;2.30;2.20;;;12.80;99.90;;;;;;5029565;28;20707;-80
2022/10/08 06:36:06;;;;;;;2.70;2.17;;;12.80;99.90;;;;;;5029040;28;20625;-81
2022/10/08 06:38:33;;;;;;;5.23;2.60;;;12.80;99.90;;;;;;5028478;28;21283;-80
2022/10/08 06:41:01;;;;;;;3.47;2.60;;;12.80;99.90;;;;;;5027521;28;20662;-80
2022/10/08 06:43:28;;;;;;;3.00;2.80;;;12.90;99.90;;;;;;5028884;28;20647;-81
2022/10/08 06:45:58;;;;;;;3.97;3.50;;;12.90;99.90;;;;;;5028289;28;21252;-80
2022/10/08 06:48:26;;;;;;;2.83;2.63;;;13.00;99.90;;;;;;5027598;28;20662;-80
2022/10/08 06:50:58;;;;;;;2.70;2.30;;;12.90;99.90;;;;;;5028196;28;20633;-80
2022/10/08 06:53:25;;;;;;;4.37;2.90;;;13.00;99.90;;;;;;5017481;28;21006;-80
2022/10/08 06:55:56;;;;;;;2.40;2.17;;;13.00;99.90;;;;;;5019330;28;20631;-79
2022/10/08 06:58:24;;;;;;;4.03;2.40;;;13.10;99.90;;;;;;5018640;28;20636;-80
2022/10/08 07:01:01;;;;;;;5.10;2.20;;;13.10;99.90;;;;;;5019559;28;21005;-79
2022/10/08 07:03:28;;;;;;;2.60;2.40;;;13.20;99.90;;;;;;5016655;28;21420;-80
2022/10/08 07:05:54;;;;;;;2.60;2.40;;;13.10;99.90;;;;;;5026564;28;20634;-80
2022/10/08 07:08:21;;;;;;;2.40;2.00;;;13.20;99.90;;;;;;5026189;28;20659;-81
2022/10/08 07:10:49;;;;;;;4.10;3.00;;;13.20;99.90;;;;;;5026898;28;20635;-80
2022/10/08 07:13:16;;;;;;;2.57;2.20;;;13.30;99.90;;;;;;5026160;28;20717;-80
2022/10/08 07:15:44;;;;;;;7.73;2.00;;;13.40;99.90;;;;;;5026793;28;20627;-80
2022/10/08 07:18:11;;;;;;;2.60;2.03;;;13.50;99.90;;;;;;5026457;28;20713;-80
2022/10/08 07:20:38;;;;;;;3.07;2.20;;;13.50;99.90;;;;;;5025716;28;20631;-80
2022/10/08 07:23:05;;;;;;;2.33;2.13;;;13.60;99.90;;;;;;5025987;28;20611;-81
2022/10/08 07:25:32;;;;;;;1.63;1.50;;;13.60;99.90;;;;;;5026049;28;20631;-81
2022/10/08 07:27:59;;;;;;;3.47;1.83;;;13.60;99.90;;;;;;5025147;28;20651;-80
2022/10/08 07:30:26;;;;;;;1.67;1.57;;;13.70;99.90;;;;;;5016216;28;20636;-81
2022/10/08 07:32:54;;;;;;;1.90;1.43;;;13.70;99.90;;;;;;5013980;28;20623;-81
2022/10/08 07:35:20;;;;;;;1.37;1.27;;;13.80;99.90;;;;;;5018157;28;20636;-81
2022/10/08 07:37:47;;;;;;;3.07;1.87;;;13.80;99.90;;;;;;5025295;28;20630;-81
2022/10/08 07:40:14;;;;;;;1.47;1.37;;;13.80;99.90;;;;;;4977877;28;1080948;-81
2022/10/08 07:42:41;;;;;;;1.77;1.67;;;13.80;99.90;;;;;;5006662;28;20303;-80
2022/10/08 07:45:09;;;;;;;4.50;1.70;;;13.90;99.90;;;;;;5008101;28;21018;-80
2022/10/08 07:47:35;;;;;;;1.87;1.73;;;14.00;99.90;;;;;;5025559;28;20655;-80
2022/10/08 07:50:04;;;;;;;1.50;1.37;;;14.00;99.90;;;;;;5027634;28;20624;-80
2022/10/08 07:52:31;;;;;;;2.33;1.50;;;14.10;99.90;;;;;;5027754;28;20629;-81
2022/10/08 07:54:58;;;;;;;3.03;1.53;;;14.10;99.90;;;;;;5027472;28;20611;-83
2022/10/08 07:57:24;;;;;;;2.43;1.77;;;14.20;99.90;;;;;;5026402;28;20623;-81
2022/10/08 07:59:51;;;;;;;1.77;1.40;;;14.30;99.90;;;;;;5018506;28;20631;-80
2022/10/08 08:02:18;;;;;;;1.80;1.30;;;14.40;99.90;;;;;;5027306;28;21045;-80
2022/10/08 08:04:45;;;;;;;5.33;3.10;;;14.50;99.90;;;;;;5026824;28;20623;-80
2022/10/08 08:07:13;;;;;;;2.20;1.57;;;14.50;99.90;;;;;;5015905;28;20628;-81
2022/10/08 08:09:40;;;;;;;0.97;0.93;;;14.60;99.90;;;;;;5021201;28;20627;-81
2022/10/08 08:12:07;;;;;;;1.50;1.17;;;14.70;99.90;;;;;;5027489;28;20623;-81
2022/10/08 08:14:34;;;;;;;1.17;1.13;;;14.70;99.90;;;;;;5026890;28;21185;-82
2022/10/08 08:17:01;;;;;;;1.37;1.20;;;14.80;99.90;;;;;;5021201;28;20715;-81
2022/10/08 08:19:28;;;;;;;3.50;1.47;;;14.80;99.90;;;;;;5007989;28;21190;-80
2022/10/08 08:21:54;;;;;;;1.87;1.70;;;14.80;99.90;;;;;;5011592;28;20629;-81
2022/10/08 08:24:22;;;;;;;1.60;1.50;;;14.80;99.90;;;;;;5027838;28;20631;-81
2022/10/08 08:26:50;;;;;;;1.50;1.40;;;14.80;99.90;;;;;;5028719;28;20914;-81
2022/10/08 08:29:18;;;;;;;3.27;1.40;;;14.80;99.90;;;;;;5031229;28;20651;-81
2022/10/08 08:31:46;;;;;;;2.80;1.10;;;14.80;99.90;;;;;;5031764;28;20743;-81
2022/10/08 08:34:15;;;;;;;1.03;0.93;;;14.80;99.90;;;;;;5020328;28;21221;-81
2022/10/08 08:36:44;;;;;;;0.90;0.90;;;14.70;99.90;;;;;;5016763;28;20628;-81
2022/10/08 08:39:16;;;;;;;1.10;1.10;;;14.90;99.80;;;;;;5029330;28;21259;-81
2022/10/08 08:41:54;;;;;;;4.50;1.27;;;14.90;99.50;;;;;;5024209;28;20679;-81
2022/10/08 08:44:24;;;;;;;2.33;1.23;;;14.90;99.60;;;;;;5011360;28;20631;-81
2022/10/08 08:46:56;;;;;;;1.87;0.97;;;14.90;99.70;;;;;;5018248;28;21087;-81
2022/10/08 08:49:28;;;;;;;1.40;1.30;;;14.90;99.80;;;;;;5031012;28;20665;-81
2022/10/08 08:51:58;;;;;;;2.83;1.60;;;14.80;98.20;;;;;;5024541;28;20995;-81
2022/10/08 08:54:25;;;;;;;1.53;1.43;;;14.70;98.50;;;;;;5019428;28;20632;-81
2022/10/08 08:56:54;;;;;;;3.70;1.13;;;14.80;98.70;;;;;;5019947;28;20614;-81
2022/10/08 08:59:27;;;;;;;1.10;1.00;;;14.90;98.50;;;;;;5021517;28;20633;-81
2022/10/08 09:01:58;;;;;;;1.37;1.07;;;15.00;97.70;;;;;;5019259;28;20603;-81
2022/10/08 09:04:32;;;;;;;1.90;1.73;;;15.00;97.30;;;;;;5015670;28;20726;-81
2022/10/08 09:07:00;;;;;;;1.47;1.30;;;15.10;97.40;;;;;;5017561;28;20623;-81
2022/10/08 09:09:33;;;;;;;1.30;1.20;;;15.20;97.30;;;;;;5016354;28;20666;-81
2022/10/08 09:12:04;;;;;;;2.40;1.10;;;15.30;97.40;;;;;;5028317;28;20638;-82
2022/10/08 09:14:38;;;;;;;5.80;1.50;;;15.40;97.10;;;;;;5031280;28;20623;-82
2022/10/08 09:17:14;;;;;;;0.90;0.90;;;15.40;96.50;;;;;;5026384;28;20599;-81
2022/10/08 09:19:41;;;;;;;0.97;0.97;;;15.50;97.40;;;;;;5024367;28;20726;-81
2022/10/08 09:22:20;;;;;;;2.27;0.80;;;15.70;96.40;;;;;;5020632;28;21026;-78
2022/10/08 09:24:49;;;;;;;1.07;1.00;;;15.50;96.20;;;;;;5018646;28;20632;-78
2022/10/08 09:27:18;;;;;;;1.07;0.93;;;15.40;96.50;;;;;;5028082;28;20627;-81
2022/10/08 09:29:45;;;;;;;0.90;0.90;;;15.30;95.60;;;;;;5024595;28;20679;-79
2022/10/08 09:32:16;;;;;;;0.90;0.83;;;15.40;96.50;;;;;;5016988;28;20719;-81
2022/10/08 09:34:45;;;;;;;0.70;0.70;;;15.40;96.50;;;;;;5019413;28;21183;-81
2022/10/08 09:37:21;;;;;;;1.30;0.87;;;15.30;96.30;;;;;;5021652;28;20607;-81
2022/10/08 09:40:06;;;;;;;1.00;0.90;;;15.40;96.10;;;;;;5020292;28;20685;-81
2022/10/08 09:42:35;;;;;;;1.30;1.20;;;15.40;96.40;;;;;;5010603;28;21024;-80
2022/10/08 09:45:02;;;;;;;1.40;1.30;;;15.40;96.10;;;;;;5015282;28;20723;-80
2022/10/08 09:47:30;;;;;;;1.53;1.43;;;15.40;95.10;;;;;;5022341;28;20991;-81
2022/10/08 09:50:05;;;;;;;1.23;1.13;;;15.40;95.60;;;;;;5030022;28;20665;-81
2022/10/08 09:52:35;;;;;;;1.30;1.10;;;15.40;95.50;;;;;;5009780;28;20622;-82
2022/10/08 09:55:07;;;;;;;0.70;0.70;;;15.40;95.60;;;;;;5010746;28;20635;-81
2022/10/08 09:57:41;;;;;;;2.33;0.90;;;15.30;95.00;;;;;;5014896;28;21201;-81
2022/10/08 10:00:24;;;;;;;1.10;1.00;;;15.30;95.30;;;;;;5028111;28;20677;-81
2022/10/08 10:02:54;;;;;;;2.93;1.20;;;15.30;95.40;;;;;;5027686;28;20639;-80
2022/10/08 10:05:24;;;;;;;1.87;1.13;;;15.40;97.60;;;;;;5019814;28;21606;-81
2022/10/08 10:07:51;;;;;;;3.20;1.10;;;15.40;95.30;;;;;;5015255;28;20639;-81
2022/10/08 10:10:24;;;;;;;0.90;0.73;;;15.50;95.60;;;;;;5029279;28;20627;-81
2022/10/08 10:12:56;;;;;;;1.30;1.03;;;15.60;95.30;;;;;;5029520;28;21272;-81
2022/10/08 10:15:32;;;;;;;0.57;0.57;;;15.60;95.40;;;;;;5027033;28;20728;-81
2022/10/08 10:18:02;;;;;;;1.13;1.07;;;15.60;95.40;;;;;;5019861;28;20633;-81
2022/10/08 10:20:33;;;;;;;0.77;0.70;;;15.70;95.00;;;;;;5021056;28;20803;-80
2022/10/08 10:23:05;;;;;;;1.00;1.00;;;15.70;93.90;;;;;;5018138;28;20850;-81
2022/10/08 10:25:37;;;;;;;1.40;1.00;;;15.70;94.70;;;;;;5019467;28;20634;-81
2022/10/08 10:28:11;;;;;;;1.43;0.80;;;15.70;94.30;;;;;;5016395;28;20726;-81
2022/10/08 10:30:47;;;;;;;0.93;0.90;;;15.70;93.90;;;;;;5019553;28;20611;-81
2022/10/08 10:33:18;;;;;;;2.03;1.17;;;15.70;93.50;;;;;;5011981;28;20710;-81
2022/10/08 10:35:50;;;;;;;2.00;1.03;;;15.70;93.30;;;;;;5008460;28;20703;-81
2022/10/08 10:38:23;;;;;;;0.80;0.80;;;15.70;93.80;;;;;;5011432;28;20716;-81
2022/10/08 10:41:01;;;;;;;1.40;0.80;;;15.80;94.00;;;;;;5019079;28;20729;-81
2022/10/08 10:43:37;;;;;;;0.60;0.50;;;15.70;92.80;;;;;;5020660;28;20641;-81
2022/10/08 10:46:24;;;;;;;1.00;0.90;;;15.70;92.70;;;;;;5017420;28;20760;-81
2022/10/08 10:48:51;;;;;;;3.60;1.43;;;15.70;93.10;;;;;;5023053;28;21147;-80
2022/10/08 10:51:37;;;;;;;0.80;0.60;;;15.80;92.80;;;;;;5021265;28;21169;-80
2022/10/08 10:54:19;;;;;;;1.03;0.73;;;15.80;92.70;;;;;;5018876;28;20634;-80
2022/10/08 10:56:53;;;;;;;1.27;1.17;;;15.80;92.70;;;;;;5021953;28;20629;-80
2022/10/08 10:59:43;;;;;;;4.30;1.37;;;15.80;92.90;;;;;;5025194;28;21169;-82
2022/10/08 11:02:20;;;;;;;1.63;0.70;;;15.80;92.70;;;;;;5026589;28;21185;-82
2022/10/08 11:04:56;;;;;;;1.23;1.13;;;16.00;93.30;;;;;;5023223;28;20724;-81
2022/10/08 11:07:41;;;;;;;1.27;0.80;;;16.10;93.10;;;;;;5028638;28;21172;-81
2022/10/08 11:10:20;;;;;;;0.97;0.80;;;15.80;91.70;;;;;;5027346;28;21282;-80
2022/10/08 11:12:52;;;;;;;3.47;1.40;;;15.80;93.10;;;;;;5023015;28;21026;-81
2022/10/08 11:15:29;;;;;;;1.70;1.30;;;15.90;92.70;;;;;;5029140;28;20631;-81
2022/10/08 11:18:14;;;;;;;1.10;0.70;;;15.90;92.40;;;;;;5014612;28;20615;-80
2022/10/08 11:20:57;;;;;;;2.07;1.03;;;16.00;93.50;;;;;;5015726;28;20994;-81
2022/10/08 11:23:42;;;;;;;2.57;0.80;;;16.00;92.50;;;;;;5028287;28;20615;-81
2022/10/08 11:26:18;;;;;;;2.40;0.83;;;16.00;92.60;;;;;;5027741;28;20631;-80
2022/10/08 11:28:56;;;;;;;3.27;1.00;;;16.10;91.50;;;;;;5027971;28;20694;-80
2022/10/08 11:31:34;;;;;;;1.13;0.80;;;16.10;90.70;;;;;;5028672;28;20634;-80
2022/10/08 11:34:03;;;;;;;1.43;0.87;;;16.10;91.10;;;;;;5028636;28;20626;-81
2022/10/08 11:36:37;;;;;;;0.80;0.80;;;15.90;90.50;;;;;;5028050;28;21031;-80
2022/10/08 11:39:14;;;;;;;2.03;0.80;;;15.80;90.80;;;;;;5028096;28;21515;-80
2022/10/08 11:41:48;;;;;;;1.10;0.73;;;15.80;91.70;;;;;;5028124;28;20741;-80
2022/10/08 11:44:17;;;;;;;1.10;1.00;;;15.90;90.60;;;;;;5028524;28;20630;-80
2022/10/08 11:46:45;;;;;;;2.53;0.80;;;15.90;90.20;;;;;;5027260;28;20964;-80
2022/10/08 11:49:47;;;;;;;2.37;1.47;;;15.90;90.90;;;;;;5027642;28;20659;-80
2022/10/08 11:52:15;;;;;;;0.80;0.63;;;16.00;91.20;;;;;;5007691;28;20619;-82
2022/10/08 11:54:47;;;;;;;0.97;0.73;;;16.10;90.10;;;;;;5017964;28;20635;-80
2022/10/08 11:57:20;;;;;;;0.83;0.70;;;16.00;88.10;;;;;;5024798;28;21435;-81
2022/10/08 11:59:55;;;;;;;1.33;1.23;;;16.00;90.10;;;;;;5024592;28;20617;-81
2022/10/08 12:02:27;;;;;;;2.80;1.67;;;16.00;90.90;;;;;;5026567;28;20630;-81
2022/10/08 12:04:58;;;;;;;0.73;0.73;;;16.00;89.60;;;;;;5027132;28;20623;-80
2022/10/08 12:07:30;;;;;;;0.87;0.70;;;16.00;89.80;;;;;;5026754;28;20642;-80
2022/10/08 12:10:24;;;;;;;0.67;0.50;;;16.00;90.80;;;;;;5026128;28;20654;-81
2022/10/08 12:13:23;;;;;;;0.80;0.53;;;15.90;90.60;;;;;;5026303;28;20749;-80
2022/10/08 12:15:58;;;;;;;0.60;0.60;;;16.00;90.40;;;;;;5028132;28;20627;-80
2022/10/08 12:18:32;;;;;;;3.23;1.73;;;16.00;90.20;;;;;;5026945;28;20696;-80
2022/10/08 12:21:50;;;;;;;1.73;1.00;;;16.00;88.90;;;;;;5028294;28;20722;-80
2022/10/08 12:24:49;;;;;;;7.63;1.00;;;16.10;90.00;;;;;;4985906;28;20621;-79
2022/10/08 12:27:38;;;;;;;0.40;0.40;;;16.10;89.20;;;;;;5026018;28;21449;-80
2022/10/08 12:30:07;;;;;;;0.87;0.83;;;16.10;90.00;;;;;;5029085;28;21315;-79
2022/10/08 12:32:55;;;;;;;0.60;0.60;;;16.20;89.80;;;;;;5027815;28;20627;-80
2022/10/08 12:35:27;;;;;;;1.57;0.83;;;16.20;89.20;;;;;;5007618;28;20619;-79
2022/10/08 12:38:13;;;;;;;0.93;0.73;;;16.20;88.20;;;;;;5007810;28;21207;-80
2022/10/08 12:40:44;;;;;;;1.13;0.80;;;16.30;88.30;;;;;;5007897;28;20650;-81
2022/10/08 12:43:21;;;;;;;1.40;0.80;;;16.20;88.50;;;;;;5006331;28;20626;-79
2022/10/08 12:45:59;;;;;;;1.07;0.97;;;16.20;89.70;;;;;;5007370;28;20677;-80
2022/10/08 12:48:35;;;;;;;1.30;0.60;;;16.20;90.00;;;;;;5006687;28;21188;-80
2022/10/08 12:51:23;;;;;;;0.80;0.80;;;16.30;90.70;;;;;;5017382;28;20626;-80
2022/10/08 12:53:50;;;;;;;0.80;0.80;;;16.30;90.90;;;;;;5026323;28;20623;-80
2022/10/08 12:56:22;;;;;;;0.90;0.80;;;16.30;90.30;;;;;;5027214;28;20631;-80
2022/10/08 12:58:50;;;;;;;1.20;1.10;;;16.10;88.30;;;;;;5024223;28;20633;-80
2022/10/08 13:01:19;;;;;;;0.90;0.83;;;16.10;90.40;;;;;;5026971;28;21033;-80
2022/10/08 13:03:46;;;;;;;3.33;0.90;;;16.30;90.80;;;;;;5017981;28;20711;-80
2022/10/08 13:06:27;;;;;;;0.50;0.50;;;16.20;88.70;;;;;;5021138;28;20669;-81
2022/10/08 13:08:54;;;;;;;1.83;1.40;;;16.10;90.00;;;;;;5024952;28;20611;-80
2022/10/08 13:11:21;;;;;;;3.07;2.13;;;16.10;87.10;;;;;;5026760;28;20621;-81